Aérodrome :
LOGIN :

S'inscrire | Disclaimer

   EN    FR    IT 

 










Légende :    VFR   VFR Marginal   IFR   IFR Intensif   IFR Très Intensif
Visi : 
Plafond : 
>= 8 km
>= 3000ft
5 à 8 km
1000 à 3000 ft
1500m à 5 km
500 à 1000 ft
800 à 1500m
200 à 500 ft
< 800m
< 200 ft
Symboles :   Orages  Brouillard  Fortes neiges  Fortes précipitations  Vent > 20 kt
SIGMETs :   Divers  Orages  Givrage  Turbulence  Onde Orograph.  Cendres Volcan.







- Altitude de l'aérodrome : 36 ft
- Code IATA : GJL


DAAV - Jijel Ferhat Abbas

DERNIER METAR :
  • 181500Z 32008KT 9999 FEW020 26/19 Q1019

METARs EXPIRÉS :
  • 181400Z 31007KT 9999 FEW020 SCT200 26/18 Q1019
  • 181300Z 31008KT 9999 FEW020 SCT200 25/18 Q1020

TAF TAF DAAV
Valide du 18 à 12h jusqu'au 19 à 12h UTC


181100Z 1812/1912 34011KT 9999 FEW026 BKN200
PROB30
TEMPO 1812/1820 FEW023TCU
BECMG 1820/1822 23008KT
PROB40
TEMPO 1901/1906 3000 BR BKN013
PROB30
TEMPO 1903/1910 FEW023TCU
BECMG 1909/1912 30012KT
Pas de NOTAMs connus pour ce terrain.



MET'MAP, la Météo Aéronautique d'un coup d'oeil ! - Copyright ORBIFLY Décembre 2007 - Disclaimer

ORBIFLY MET'MAP TEAM :

Programmation & Développement : Alexandra Zaïnal
Conception & Développement : Baudouin d'Aumeries
Co-Programmation & Développement : Marc-Olivier Méhu
Soutien technique & logistique : Manuel Goepfert

Contact : metmap@orbifly.com




SOURCES & CREDITS :

   NOAA